Time,TemperatureF,DewpointF,PressureIn,WindDirection,WindDirectionDegrees,WindSpeedMPH,WindSpeedGustMPH,Humidity,HourlyPrecipIn,Conditions,Clouds,dailyrainin,SolarRadiationWatts/m^2,SoftwareType,DateUTC
2013-01-10 00:03:00,77.0,71.0,-100.00,ESE,112,7.0,17.0,82,0.00,,,0.00,0.000000,,2013-01-10 05:03:00,
2013-01-10 00:12:00,77.0,71.0,-100.00,ESE,112,7.0,17.0,82,0.00,,,0.00,0.000000,,2013-01-10 05:12:00,
2013-01-10 00:23:00,77.0,71.0,-100.00,ESE,112,7.0,17.0,82,0.00,,,0.00,0.000000,,2013-01-10 05:23:00,
2013-01-10 00:33:00,77.0,71.0,-100.00,ESE,112,7.0,17.0,82,0.00,,,0.00,0.000000,,2013-01-10 05:33:00,
2013-01-10 01:02:00,77.0,71.0,-100.00,ESE,105,8.0,20.0,83,0.00,,,0.00,0.000000,,2013-01-10 06:02:00,
2013-01-10 01:12:00,77.0,71.0,-100.00,ESE,105,8.0,20.0,83,0.00,,,0.00,0.000000,,2013-01-10 06:12:00,
2013-01-10 01:22:00,77.0,71.0,-100.00,ESE,105,8.0,20.0,83,0.00,,,0.00,0.000000,,2013-01-10 06:22:00,
2013-01-10 01:32:00,77.0,71.0,-100.00,ESE,105,8.0,20.0,83,0.00,,,0.00,0.000000,,2013-01-10 06:32:00,
2013-01-10 02:02:00,77.0,71.0,-100.00,ESE,110,8.0,22.0,81,0.00,,,0.00,0.000000,,2013-01-10 07:02:00,
2013-01-10 02:12:00,77.0,71.0,-100.00,ESE,110,8.0,22.0,81,0.00,,,0.00,0.000000,,2013-01-10 07:12:00,
2013-01-10 02:22:00,77.0,71.0,-100.00,ESE,110,8.0,22.0,81,0.00,,,0.00,0.000000,,2013-01-10 07:22:00,
2013-01-10 02:32:00,77.0,71.0,-100.00,ESE,110,8.0,22.0,81,0.00,,,0.00,0.000000,,2013-01-10 07:32:00,
2013-01-10 03:02:00,76.0,70.0,-100.00,ESE,113,7.0,16.0,82,0.00,,,0.00,0.000000,,2013-01-10 08:02:00,
2013-01-10 03:12:00,76.0,70.0,-100.00,ESE,113,7.0,16.0,82,0.00,,,0.00,0.000000,,2013-01-10 08:12:00,
2013-01-10 03:22:00,76.0,70.0,-100.00,ESE,113,7.0,16.0,82,0.00,,,0.00,0.000000,,2013-01-10 08:22:00,
2013-01-10 03:32:00,76.0,70.0,-100.00,ESE,113,7.0,16.0,82,0.00,,,0.00,0.000000,,2013-01-10 08:32:00,
2013-01-10 04:02:00,76.0,70.0,-100.00,ESE,117,8.0,19.0,81,0.00,,,0.00,0.000000,,2013-01-10 09:02:00,
2013-01-10 04:12:00,76.0,70.0,-100.00,ESE,117,8.0,19.0,81,0.00,,,0.00,0.000000,,2013-01-10 09:12:00,
2013-01-10 04:22:00,76.0,70.0,-100.00,ESE,117,8.0,19.0,81,0.00,,,0.00,0.000000,,2013-01-10 09:22:00,
2013-01-10 04:32:00,76.0,70.0,-100.00,ESE,117,8.0,19.0,81,0.00,,,0.00,0.000000,,2013-01-10 09:32:00,
2013-01-10 05:03:00,76.0,70.0,-100.00,ESE,109,6.0,14.0,82,0.00,,,0.00,0.000000,,2013-01-10 10:03:00,
2013-01-10 05:12:00,76.0,70.0,-100.00,ESE,109,6.0,14.0,82,0.00,,,0.00,0.000000,,2013-01-10 10:12:00,
2013-01-10 05:22:00,76.0,70.0,-100.00,ESE,109,6.0,14.0,82,0.00,,,0.00,0.000000,,2013-01-10 10:22:00,
2013-01-10 05:32:00,76.0,70.0,-100.00,ESE,109,6.0,14.0,82,0.00,,,0.00,0.000000,,2013-01-10 10:32:00,
2013-01-10 05:53:00,76.0,69.0,-100.00,ESE,108,7.0,14.0,80,0.00,,,0.00,0.000000,,2013-01-10 10:53:00,
2013-01-10 06:03:00,76.0,69.0,-100.00,ESE,108,7.0,14.0,80,0.00,,,0.00,0.000000,,2013-01-10 11:03:00,
2013-01-10 06:12:00,76.0,69.0,-100.00,ESE,108,7.0,14.0,80,0.00,,,0.00,0.000000,,2013-01-10 11:12:00,
2013-01-10 06:22:00,76.0,69.0,-100.00,ESE,108,7.0,14.0,80,0.00,,,0.00,0.000000,,2013-01-10 11:22:00,
2013-01-10 06:33:00,76.0,69.0,-100.00,ESE,108,7.0,14.0,80,0.00,,,0.00,0.000000,,2013-01-10 11:33:00,
2013-01-10 07:03:00,75.0,68.0,-100.00,ESE,119,7.0,16.0,79,0.00,,,0.00,0.000000,,2013-01-10 12:03:00,
2013-01-10 07:12:00,75.0,68.0,-100.00,ESE,119,7.0,16.0,79,0.00,,,0.00,0.000000,,2013-01-10 12:12:00,
2013-01-10 07:22:00,75.0,68.0,-100.00,ESE,119,7.0,16.0,79,0.00,,,0.00,0.000000,,2013-01-10 12:22:00,
2013-01-10 07:33:00,75.0,68.0,-100.00,ESE,119,7.0,16.0,79,0.00,,,0.00,0.000000,,2013-01-10 12:33:00,
2013-01-10 09:53:00,80.0,68.0,-100.00,ESE,109,7.0,17.0,68,-99.99,,,0.00,308.000000,,2013-01-10 14:53:00,
2013-01-10 10:03:00,80.0,68.0,-100.00,ESE,109,7.0,17.0,68,-99.99,,,0.00,308.000000,,2013-01-10 15:03:00,
2013-01-10 10:12:00,80.0,68.0,-100.00,ESE,109,7.0,17.0,68,-99.99,,,0.00,308.000000,,2013-01-10 15:12:00,
2013-01-10 10:23:00,80.0,68.0,-100.00,ESE,109,7.0,17.0,68,-99.99,,,0.00,308.000000,,2013-01-10 15:23:00,
2013-01-10 10:33:00,80.0,68.0,-100.00,ESE,109,7.0,17.0,68,-99.99,,,0.00,308.000000,,2013-01-10 15:33:00,
2013-01-10 11:03:00,82.0,68.0,-100.00,ESE,105,8.0,17.0,63,0.00,,,0.00,468.000000,,2013-01-10 16:03:00,
2013-01-10 11:13:00,82.0,68.0,-100.00,ESE,105,8.0,17.0,63,0.00,,,0.00,468.000000,,2013-01-10 16:13:00,
2013-01-10 11:23:00,82.0,68.0,-100.00,ESE,105,8.0,17.0,63,0.00,,,0.00,468.000000,,2013-01-10 16:23:00,
2013-01-10 11:33:00,82.0,68.0,-100.00,ESE,105,8.0,17.0,63,0.00,,,0.00,468.000000,,2013-01-10 16:33:00,
2013-01-10 12:03:00,81.0,68.0,-100.00,East,101,10.0,19.0,64,0.00,,,0.00,577.000000,,2013-01-10 17:03:00,
2013-01-10 12:12:00,81.0,68.0,-100.00,East,101,10.0,19.0,64,0.00,,,0.00,577.000000,,2013-01-10 17:12:00,
2013-01-10 12:23:00,81.0,68.0,-100.00,East,101,10.0,19.0,64,0.00,,,0.00,577.000000,,2013-01-10 17:23:00,
2013-01-10 12:33:00,81.0,68.0,-100.00,East,101,10.0,19.0,64,0.00,,,0.00,577.000000,,2013-01-10 17:33:00,
2013-01-10 12:53:00,81.0,69.0,-100.00,ESE,107,10.0,21.0,67,0.00,,,0.00,634.000000,,2013-01-10 17:53:00,
2013-01-10 13:03:00,81.0,69.0,-100.00,ESE,107,10.0,21.0,67,0.00,,,0.00,634.000000,,2013-01-10 18:03:00,
2013-01-10 13:12:00,81.0,69.0,-100.00,ESE,107,10.0,21.0,67,0.00,,,0.00,634.000000,,2013-01-10 18:12:00,
2013-01-10 13:23:00,81.0,69.0,-100.00,ESE,107,10.0,21.0,67,0.00,,,0.00,634.000000,,2013-01-10 18:23:00,
2013-01-10 13:33:00,81.0,69.0,-100.00,ESE,107,10.0,21.0,67,0.00,,,0.00,634.000000,,2013-01-10 18:33:00,
2013-01-10 14:03:00,82.0,70.0,-100.00,ESE,113,9.0,19.0,68,0.00,,,0.00,629.000000,,2013-01-10 19:03:00,
2013-01-10 14:13:00,82.0,70.0,-100.00,ESE,113,9.0,19.0,68,0.00,,,0.00,629.000000,,2013-01-10 19:13:00,
2013-01-10 14:23:00,82.0,70.0,-100.00,ESE,113,9.0,19.0,68,0.00,,,0.00,629.000000,,2013-01-10 19:23:00,
2013-01-10 14:33:00,82.0,70.0,-100.00,ESE,113,9.0,19.0,68,0.00,,,0.00,629.000000,,2013-01-10 19:33:00,
2013-01-10 14:53:00,80.0,70.0,-100.00,ESE,110,8.0,18.0,72,0.00,,,0.00,417.000000,,2013-01-10 19:53:00,
2013-01-10 15:03:00,80.0,70.0,-100.00,ESE,110,8.0,18.0,72,0.00,,,0.00,417.000000,,2013-01-10 20:03:00,
2013-01-10 15:13:00,80.0,70.0,-100.00,ESE,110,8.0,18.0,72,0.00,,,0.00,417.000000,,2013-01-10 20:13:00,
2013-01-10 15:24:00,80.0,70.0,-100.00,ESE,110,8.0,18.0,72,0.00,,,0.00,417.000000,,2013-01-10 20:24:00,
2013-01-10 15:33:00,80.0,70.0,-100.00,ESE,110,8.0,18.0,72,0.00,,,0.00,417.000000,,2013-01-10 20:33:00,
2013-01-10 15:53:00,80.0,70.0,-100.00,ESE,107,8.0,18.0,72,0.00,,,0.00,338.000000,,2013-01-10 20:53:00,
2013-01-10 16:04:00,80.0,70.0,-100.00,ESE,107,8.0,18.0,72,0.00,,,0.00,338.000000,,2013-01-10 21:04:00,
2013-01-10 16:13:00,80.0,70.0,-100.00,ESE,107,8.0,18.0,72,0.00,,,0.00,338.000000,,2013-01-10 21:13:00,
2013-01-10 16:23:00,80.0,70.0,-100.00,ESE,107,8.0,18.0,72,0.00,,,0.00,338.000000,,2013-01-10 21:23:00,
2013-01-10 16:33:00,80.0,70.0,-100.00,ESE,107,8.0,18.0,72,0.00,,,0.00,338.000000,,2013-01-10 21:33:00,
2013-01-10 17:04:00,80.0,69.0,-100.00,ESE,102,8.0,17.0,69,0.00,,,0.00,234.000000,,2013-01-10 22:04:00,
2013-01-10 17:13:00,80.0,69.0,-100.00,ESE,102,8.0,17.0,69,0.00,,,0.00,234.000000,,2013-01-10 22:13:00,
2013-01-10 17:27:00,80.0,69.0,-100.00,ESE,102,8.0,17.0,69,0.00,,,0.00,234.000000,,2013-01-10 22:27:00,
2013-01-10 17:33:00,80.0,69.0,-100.00,ESE,102,8.0,17.0,69,0.00,,,0.00,234.000000,,2013-01-10 22:33:00,
2013-01-10 18:03:00,77.0,68.0,-100.00,East,84,9.0,17.0,74,0.00,,,0.00,101.000000,,2013-01-10 23:03:00,
2013-01-10 18:13:00,77.0,68.0,-100.00,East,84,9.0,17.0,74,0.00,,,0.00,101.000000,,2013-01-10 23:13:00,
2013-01-10 18:23:00,77.0,68.0,-100.00,East,84,9.0,17.0,74,0.00,,,0.00,101.000000,,2013-01-10 23:23:00,
2013-01-10 18:33:00,77.0,68.0,-100.00,East,84,9.0,17.0,74,0.00,,,0.00,101.000000,,2013-01-10 23:33:00,
2013-01-10 18:53:00,77.0,68.0,-100.00,East,89,8.0,17.0,74,0.00,,,0.00,5.000000,,2013-01-10 23:53:00,
2013-01-10 19:03:00,77.0,68.0,-100.00,East,89,8.0,17.0,74,0.00,,,0.00,5.000000,,2013-01-11 00:03:00,
2013-01-10 19:13:00,77.0,68.0,-100.00,East,89,8.0,17.0,74,0.00,,,0.00,5.000000,,2013-01-11 00:13:00,
2013-01-10 19:23:00,77.0,68.0,-100.00,East,89,8.0,17.0,74,0.00,,,0.00,5.000000,,2013-01-11 00:23:00,
2013-01-10 19:33:00,77.0,68.0,-100.00,East,89,8.0,17.0,74,0.00,,,0.00,5.000000,,2013-01-11 00:33:00,
2013-01-10 20:03:00,77.0,68.0,-100.00,East,92,8.0,16.0,73,0.00,,,0.00,0.000000,,2013-01-11 01:03:00,
2013-01-10 20:13:00,77.0,68.0,-100.00,East,92,8.0,16.0,73,0.00,,,0.00,0.000000,,2013-01-11 01:13:00,
2013-01-10 20:34:00,77.0,68.0,-100.00,East,92,8.0,16.0,73,0.00,,,0.00,0.000000,,2013-01-11 01:34:00,
2013-01-10 20:53:00,77.0,68.0,-100.00,East,93,10.0,17.0,73,0.00,,,0.00,0.000000,,2013-01-11 01:53:00,
2013-01-10 21:03:00,77.0,68.0,-100.00,East,93,10.0,17.0,73,0.00,,,0.00,0.000000,,2013-01-11 02:03:00,
2013-01-10 21:13:00,77.0,68.0,-100.00,East,93,10.0,17.0,73,0.00,,,0.00,0.000000,,2013-01-11 02:13:00,
2013-01-10 21:23:00,77.0,68.0,-100.00,East,93,10.0,17.0,73,0.00,,,0.00,0.000000,,2013-01-11 02:23:00,
2013-01-10 21:33:00,77.0,68.0,-100.00,East,93,10.0,17.0,73,0.00,,,0.00,0.000000,,2013-01-11 02:33:00,
2013-01-10 21:54:00,76.0,70.0,-100.00,East,89,9.0,18.0,82,0.00,,,0.00,0.000000,,2013-01-11 02:54:00,
2013-01-10 22:03:00,76.0,70.0,-100.00,East,89,9.0,18.0,82,0.00,,,0.00,0.000000,,2013-01-11 03:03:00,
2013-01-10 22:13:00,76.0,70.0,-100.00,East,89,9.0,18.0,82,0.00,,,0.00,0.000000,,2013-01-11 03:13:00,
2013-01-10 22:23:00,76.0,70.0,-100.00,East,89,9.0,18.0,82,0.00,,,0.00,0.000000,,2013-01-11 03:23:00,
2013-01-10 22:33:00,76.0,70.0,-100.00,East,89,9.0,18.0,82,0.00,,,0.00,0.000000,,2013-01-11 03:33:00,
2013-01-10 23:03:00,76.0,69.0,-100.00,East,97,9.0,19.0,79,0.00,,,0.00,0.000000,,2013-01-11 04:03:00,
2013-01-10 23:12:00,76.0,69.0,-100.00,East,97,9.0,19.0,79,0.00,,,0.00,0.000000,,2013-01-11 04:12:00,
2013-01-10 23:23:00,76.0,69.0,-100.00,East,97,9.0,19.0,79,0.00,,,0.00,0.000000,,2013-01-11 04:23:00,
2013-01-10 23:33:00,76.0,69.0,-100.00,East,97,9.0,19.0,79,0.00,,,0.00,0.000000,,2013-01-11 04:33:00,